KAIZ/AIZ METAR and TAF weather

Enter ICAO airport designator
Station Type Date Time Source
KAIZ METAR 2021/07/29 08:56 UTC NOAA

KAIZ 290856Z AUTO 00000KT 10SM CLR 23/23 A3006 RMK AO2 SLP169 T02330233 53010


Station Type Date Time Source
KAIZ Decoded METAR 2021/07/29 08:56 UTC NOAA

Kaiser Lake Ozark, Lee C Fine Memorial Airport, MO, United States (KAIZ) 38-06N 092-33W
Jul 29, 2021 - 04:56 AM EDT / 2021.07.29 0856 UTC
Wind: Calm:0
Visibility: 10 mile(s):0
Sky conditions: clear
Temperature: 73.9 F (23.3 C)
Dew Point: 73.9 F (23.3 C)
Relative Humidity: 100%
Pressure (altimeter): 30.06 in. Hg (1017 hPa)
Pressure tendency: 0.03 inches (1.0 hPa) higher than three hours ago
ob: KAIZ 290856Z AUTO 00000KT 10SM CLR 23/23 A3006 RMK AO2 SLP169 T02330233 53010
cycle: 9

Station Type Date Time Source
KAIZ TAF UTC NOAA

Error!

Example: see airport list